Chetumal International Airport
MMCM : now visible

Airfield :











YOU CAN JOIN US ON...

 
LOGIN :

Register | Disclaimer

   EN    FR    IT 

 









Legend :    VFR   Marginal VFR   IFR   Intensive IFR   Very Intensive IFR
Visi :
Ceiling :
>= 8 km
>= 3000ft
5 to 8 km
1000 to 3000 ft
1500m to 5 km
500 to 1000 ft
800 to 1500m
200 to 500 ft
< 800m
< 200 ft
Symbols :   Thunderstorms  Fog  Heavy snow  Heavy precipitations  Wind > 20 kt






- Airport Elevation : 39 ft
- IATA code : CTM


MMCM - Chetumal International

METAR N/A
TAF COR TAF MMCM
Valid from the 30 at 18:00 until the 01 at 18:00 UTC


302225Z 3018/0118 03012KT P6SM SCT015CB BKN080
FM302300 10010KT P6SM TSRA BKN015CB OVC080
TEMPO 0100/0104 3SM TSRA
FM010600 22010KT 4SM HZ OVC010
TEMPO 0112/0115 2SM HZ
MMFR FIR / North America



MET'MAP, your aeronautical weather chart ! - Copyright ORBIFLY December 2007 - Disclaimer

ORBIFLY MET'MAP TEAM :

Programming & Development : Alexandra Zaïnal
Concept & original design : Baudouin d'Aumeries
Assistance for programming : Marc-Olivier Méhu
Technical & hardware support : Manuel Goepfert

Contact : metmap@orbifly.com




SOURCES & CREDITS :

   NOAA       Earth
Advisory